EHBK/MST METAR and TAF weather

Enter ICAO airport designator
Station Type Date Time Source
EHBK METAR 2018/10/22 16:25 UTC NOAA

EHBK 221625Z AUTO 34004KT 310V010 9999 SCT042 12/05 Q1032 NOSIG


Station Type Date Time Source
EHBK Decoded METAR 2018/10/22 16:25 UTC NOAA

Maastricht Airport Zuid Limburg, Netherlands (EHBK) 50-55N 005-47E 116M
Oct 22, 2018 - 12:25 PM EDT / 2018.10.22 1625 UTC
Wind: from the NNW (340 degrees) at 5 MPH (4 KT) (direction variable):0
Visibility: greater than 7 mile(s):0
Sky conditions: partly cloudy
Temperature: 53 F (12 C)
Dew Point: 41 F (5 C)
Relative Humidity: 62%
Pressure (altimeter): 30.47 in. Hg (1032 hPa)
ob: EHBK 221625Z AUTO 34004KT 310V010 9999 SCT042 12/05 Q1032 NOSIG
cycle: 16

Station Type Date Time Source
EHBK TAF 2018/10/22 12:27 UTC NOAA

TAF EHBK 221121Z 2212/2318 02012KT 9999 SCT030
BECMG 2217/2220 34005KT
BECMG 2304/2307 23014KT
BECMG 2309/2312 26015G25KT
BECMG 2316/2318 27012KT


Example: see airport list